createdAt,value
2019-05-26T00:01:48.396Z,0.0
2019-05-26T00:12:06.161Z,0.0
2019-05-26T00:22:22.162Z,0.0
2019-05-26T00:32:40.174Z,0.0
2019-05-26T00:43:27.843Z,0.0
2019-05-26T00:54:15.927Z,0.0
2019-05-26T01:05:04.170Z,0.0
2019-05-26T01:15:50.747Z,0.0
2019-05-26T01:26:41.734Z,0.0
2019-05-26T01:37:26.891Z,0.0
2019-05-26T01:47:40.273Z,0.0
2019-05-26T01:57:57.024Z,0.0
2019-05-26T02:08:14.525Z,0.0
2019-05-26T02:19:07.097Z,0.0
2019-05-26T02:29:52.616Z,0.0
2019-05-26T02:40:43.337Z,0.0
2019-05-26T02:50:57.715Z,0.0
2019-05-26T03:02:00.831Z,0.0
2019-05-26T03:12:01.685Z,0.0
2019-05-26T03:22:14.868Z,5.0
2019-05-26T03:33:05.226Z,10.0
2019-05-26T03:43:17.049Z,15.0
2019-05-26T03:53:30.373Z,25.0
2019-05-26T04:03:43.708Z,35.0
2019-05-26T04:13:59.380Z,45.0
2019-05-26T04:24:49.359Z,65.0
2019-05-26T04:35:06.334Z,95.0
2019-05-26T04:45:43.510Z,130.0
2019-05-26T04:56:02.545Z,135.0
2019-05-26T05:06:53.344Z,150.0
2019-05-26T05:17:12.125Z,155.0
2019-05-26T05:27:26.183Z,155.0
2019-05-26T05:37:54.739Z,165.0
2019-05-26T05:48:46.166Z,200.0
2019-05-26T05:59:31.188Z,240.0
2019-05-26T06:09:45.596Z,225.0
2019-05-26T06:19:59.954Z,215.0
2019-05-26T06:30:55.161Z,315.0
2019-05-26T06:41:46.693Z,310.0
2019-05-26T06:52:31.872Z,250.0
2019-05-26T07:03:19.335Z,280.0
2019-05-26T07:13:33.166Z,245.0
2019-05-26T07:24:20.404Z,270.0
2019-05-26T07:34:34.157Z,340.0
2019-05-26T07:44:53.509Z,375.0
2019-05-26T07:55:41.244Z,460.0
2019-05-26T08:06:02.026Z,510.0
2019-05-26T08:16:17.530Z,570.0
2019-05-26T08:26:36.523Z,630.0
2019-05-26T08:36:53.315Z,450.0
2019-05-26T08:47:09.405Z,440.0
2019-05-26T08:57:24.774Z,560.0
2019-05-26T09:07:37.757Z,600.0
2019-05-26T09:18:36.542Z,515.0
2019-05-26T09:35:27.993Z,1355.0
2019-05-26T09:45:45.565Z,1070.0
2019-05-26T09:56:13.476Z,1075.0
2019-05-26T10:06:29.130Z,880.0
2019-05-26T10:16:45.960Z,725.0
2019-05-26T10:27:02.472Z,740.0
2019-05-26T10:37:33.271Z,975.0
2019-05-26T10:48:20.012Z,790.0
2019-05-26T10:59:10.029Z,650.0
2019-05-26T11:09:23.596Z,615.0
2019-05-26T11:19:37.449Z,535.0
2019-05-26T11:29:56.324Z,700.0
2019-05-26T11:40:11.883Z,845.0
2019-05-26T11:50:25.482Z,755.0
2019-05-26T12:00:39.235Z,805.0
2019-05-26T12:10:57.796Z,680.0
2019-05-26T12:21:42.634Z,715.0
2019-05-26T12:32:12.502Z,445.0
2019-05-26T12:42:26.661Z,415.0
2019-05-26T12:53:35.915Z,680.0
2019-05-26T13:03:53.954Z,785.0
2019-05-26T13:14:10.510Z,430.0
2019-05-26T13:24:37.578Z,485.0
2019-05-26T13:35:32.843Z,315.0
2019-05-26T13:46:54.250Z,455.0
2019-05-26T13:57:10.140Z,420.0
2019-05-26T14:07:29.132Z,425.0
2019-05-26T14:18:18.073Z,405.0
2019-05-26T14:28:33.746Z,320.0
2019-05-26T14:39:23.357Z,365.0
2019-05-26T14:50:29.255Z,295.0
2019-05-26T15:00:47.969Z,240.0
2019-05-26T15:13:39.703Z,235.0
2019-05-26T15:23:55.629Z,215.0
2019-05-26T15:34:43.072Z,220.0
2019-05-26T15:44:59.146Z,295.0
2019-05-26T15:55:15.089Z,280.0
2019-05-26T16:06:01.781Z,240.0
2019-05-26T16:16:19.689Z,305.0
2019-05-26T16:26:38.290Z,295.0
2019-05-26T16:36:52.677Z,255.0
2019-05-26T16:47:09.659Z,225.0
2019-05-26T16:57:28.660Z,185.0
2019-05-26T17:07:47.047Z,170.0
2019-05-26T17:34:16.176Z,125.0
2019-05-26T17:45:07.822Z,110.0
2019-05-26T17:55:24.814Z,75.0
2019-05-26T18:05:40.708Z,65.0
2019-05-26T18:16:31.845Z,20.0
2019-05-26T18:26:49.897Z,10.0
2019-05-26T18:37:40.594Z,30.0
2019-05-26T18:48:31.380Z,30.0
2019-05-26T18:58:46.928Z,15.0
2019-05-26T19:09:34.243Z,5.0
2019-05-26T19:19:50.600Z,0.0
2019-05-26T19:30:09.590Z,0.0
2019-05-26T19:40:55.257Z,0.0
2019-05-26T19:51:46.149Z,0.0
2019-05-26T20:02:33.613Z,0.0
2019-05-26T20:12:48.774Z,0.0
2019-05-26T20:23:36.401Z,0.0
2019-05-26T20:33:51.931Z,0.0
2019-05-26T20:44:06.765Z,0.0
2019-05-26T20:54:22.567Z,0.0
2019-05-26T21:05:10.246Z,0.0
2019-05-26T21:15:24.710Z,0.0
2019-05-26T21:26:12.340Z,0.0
2019-05-26T21:37:00.275Z,0.0
2019-05-26T21:47:50.671Z,0.0
2019-05-26T21:58:07.924Z,0.0
2019-05-26T22:08:24.175Z,0.0
2019-05-26T22:18:42.316Z,0.0
2019-05-26T22:29:29.215Z,0.0
2019-05-26T22:39:47.017Z,0.0
2019-05-26T22:50:39.384Z,0.0
2019-05-26T23:01:25.838Z,0.0
2019-05-26T23:11:44.501Z,0.0
2019-05-26T23:22:36.255Z,0.0
2019-05-26T23:33:27.159Z,0.0
2019-05-26T23:43:43.206Z,0.0
2019-05-26T23:53:56.580Z,0.0
